sensor_id;sensor_type;location;lat;lon;timestamp;temperature;humidity
7360;DHT22;3720;48.274;7.796;2023-07-20T00:01:21;21.80;99.90
7360;DHT22;3720;48.274;7.796;2023-07-20T00:03:55;21.80;99.90
7360;DHT22;3720;48.274;7.796;2023-07-20T00:06:26;21.70;99.90
7360;DHT22;3720;48.274;7.796;2023-07-20T00:08:59;21.70;99.90
7360;DHT22;3720;48.274;7.796;2023-07-20T00:11:31;21.60;99.90
7360;DHT22;3720;48.274;7.796;2023-07-20T00:14:03;21.50;99.90
7360;DHT22;3720;48.274;7.796;2023-07-20T00:16:35;21.50;99.90
7360;DHT22;3720;48.274;7.796;2023-07-20T00:19:09;21.40;99.90
7360;DHT22;3720;48.274;7.796;2023-07-20T00:21:41;21.40;99.90
7360;DHT22;3720;48.274;7.796;2023-07-20T00:24:13;21.40;99.90
7360;DHT22;3720;48.274;7.796;2023-07-20T00:26:45;21.40;99.90
7360;DHT22;3720;48.274;7.796;2023-07-20T00:29:16;21.40;99.90
7360;DHT22;3720;48.274;7.796;2023-07-20T00:31:48;21.30;99.90
7360;DHT22;3720;48.274;7.796;2023-07-20T00:34:22;21.30;99.90
7360;DHT22;3720;48.274;7.796;2023-07-20T00:36:53;21.20;99.90
7360;DHT22;3720;48.274;7.796;2023-07-20T00:39:25;21.20;99.90
7360;DHT22;3720;48.274;7.796;2023-07-20T00:41:57;21.10;99.90
7360;DHT22;3720;48.274;7.796;2023-07-20T00:44:29;21.20;99.90
7360;DHT22;3720;48.274;7.796;2023-07-20T00:47:01;21.20;99.90
7360;DHT22;3720;48.274;7.796;2023-07-20T00:49:34;21.10;99.90
7360;DHT22;3720;48.274;7.796;2023-07-20T00:52:07;21.10;99.90
7360;DHT22;3720;48.274;7.796;2023-07-20T00:54:40;21.10;99.90
7360;DHT22;3720;48.274;7.796;2023-07-20T00:57:14;21.10;99.90
7360;DHT22;3720;48.274;7.796;2023-07-20T00:59:46;21.00;99.90
7360;DHT22;3720;48.274;7.796;2023-07-20T01:02:18;21.00;99.90
7360;DHT22;3720;48.274;7.796;2023-07-20T01:04:52;20.90;99.90
7360;DHT22;3720;48.274;7.796;2023-07-20T01:07:28;20.90;99.90
7360;DHT22;3720;48.274;7.796;2023-07-20T01:10:06;20.80;99.90
7360;DHT22;3720;48.274;7.796;2023-07-20T01:12:43;20.80;99.90
7360;DHT22;3720;48.274;7.796;2023-07-20T01:15:16;20.80;99.90
7360;DHT22;3720;48.274;7.796;2023-07-20T01:17:48;20.70;99.90
7360;DHT22;3720;48.274;7.796;2023-07-20T01:20:22;20.70;99.90
7360;DHT22;3720;48.274;7.796;2023-07-20T01:23:11;20.70;99.90
7360;DHT22;3720;48.274;7.796;2023-07-20T01:25:58;20.70;99.90
7360;DHT22;3720;48.274;7.796;2023-07-20T01:29:04;20.70;99.90
7360;DHT22;3720;48.274;7.796;2023-07-20T01:31:44;20.70;99.90
7360;DHT22;3720;48.274;7.796;2023-07-20T01:34:17;20.60;99.90
7360;DHT22;3720;48.274;7.796;2023-07-20T01:36:50;20.50;99.90
7360;DHT22;3720;48.274;7.796;2023-07-20T01:39:24;20.40;99.90
7360;DHT22;3720;48.274;7.796;2023-07-20T01:41:56;20.40;99.90
7360;DHT22;3720;48.274;7.796;2023-07-20T01:44:29;20.30;99.90
7360;DHT22;3720;48.274;7.796;2023-07-20T01:47:03;20.40;99.90
7360;DHT22;3720;48.274;7.796;2023-07-20T01:49:35;20.40;99.90
7360;DHT22;3720;48.274;7.796;2023-07-20T01:52:07;20.40;99.90
7360;DHT22;3720;48.274;7.796;2023-07-20T01:54:39;20.40;99.90
7360;DHT22;3720;48.274;7.796;2023-07-20T01:57:11;20.30;99.90
7360;DHT22;3720;48.274;7.796;2023-07-20T01:59:43;20.30;99.90
7360;DHT22;3720;48.274;7.796;2023-07-20T02:02:16;20.20;99.90
7360;DHT22;3720;48.274;7.796;2023-07-20T02:04:48;20.20;99.90
7360;DHT22;3720;48.274;7.796;2023-07-20T02:07:20;20.10;99.90
7360;DHT22;3720;48.274;7.796;2023-07-20T02:09:52;20.10;99.90
7360;DHT22;3720;48.274;7.796;2023-07-20T02:12:24;20.10;99.90
7360;DHT22;3720;48.274;7.796;2023-07-20T02:14:56;20.00;99.90
7360;DHT22;3720;48.274;7.796;2023-07-20T02:17:29;20.00;99.90
7360;DHT22;3720;48.274;7.796;2023-07-20T02:20:01;19.90;99.90
7360;DHT22;3720;48.274;7.796;2023-07-20T02:22:33;19.90;99.90
7360;DHT22;3720;48.274;7.796;2023-07-20T02:25:06;19.90;99.90
7360;DHT22;3720;48.274;7.796;2023-07-20T02:27:39;19.80;99.90
7360;DHT22;3720;48.274;7.796;2023-07-20T02:30:11;19.70;99.90
7360;DHT22;3720;48.274;7.796;2023-07-20T02:32:45;19.80;99.90
7360;DHT22;3720;48.274;7.796;2023-07-20T02:35:19;19.90;99.90
7360;DHT22;3720;48.274;7.796;2023-07-20T02:37:50;19.90;99.90
7360;DHT22;3720;48.274;7.796;2023-07-20T02:40:22;19.90;99.90
7360;DHT22;3720;48.274;7.796;2023-07-20T02:42:54;19.80;99.90
7360;DHT22;3720;48.274;7.796;2023-07-20T02:45:26;20.40;99.90
7360;DHT22;3720;48.274;7.796;2023-07-20T02:48:00;19.70;99.90
7360;DHT22;3720;48.274;7.796;2023-07-20T02:50:33;19.80;99.90
7360;DHT22;3720;48.274;7.796;2023-07-20T02:53:06;19.70;99.90
7360;DHT22;3720;48.274;7.796;2023-07-20T02:55:38;19.70;99.90
7360;DHT22;3720;48.274;7.796;2023-07-20T02:58:09;19.70;99.90
7360;DHT22;3720;48.274;7.796;2023-07-20T03:00:42;19.70;99.90
7360;DHT22;3720;48.274;7.796;2023-07-20T03:03:15;19.70;99.90
7360;DHT22;3720;48.274;7.796;2023-07-20T03:05:47;19.70;99.90
7360;DHT22;3720;48.274;7.796;2023-07-20T03:08:24;19.70;99.90
7360;DHT22;3720;48.274;7.796;2023-07-20T03:10:56;19.70;99.90
7360;DHT22;3720;48.274;7.796;2023-07-20T03:13:28;19.60;99.90
7360;DHT22;3720;48.274;7.796;2023-07-20T03:16:00;19.60;99.90
7360;DHT22;3720;48.274;7.796;2023-07-20T03:18:33;19.50;99.90
7360;DHT22;3720;48.274;7.796;2023-07-20T03:21:05;19.50;99.90
7360;DHT22;3720;48.274;7.796;2023-07-20T03:23:38;19.40;99.90
7360;DHT22;3720;48.274;7.796;2023-07-20T03:26:10;19.40;99.90
7360;DHT22;3720;48.274;7.796;2023-07-20T03:28:42;19.40;99.90
7360;DHT22;3720;48.274;7.796;2023-07-20T03:31:14;19.40;99.90
7360;DHT22;3720;48.274;7.796;2023-07-20T03:33:48;19.30;99.90
7360;DHT22;3720;48.274;7.796;2023-07-20T03:36:20;19.40;99.90
7360;DHT22;3720;48.274;7.796;2023-07-20T03:38:52;19.40;99.90
7360;DHT22;3720;48.274;7.796;2023-07-20T03:41:24;19.40;99.90
7360;DHT22;3720;48.274;7.796;2023-07-20T03:43:56;19.30;99.90
7360;DHT22;3720;48.274;7.796;2023-07-20T03:46:28;19.30;99.90
7360;DHT22;3720;48.274;7.796;2023-07-20T03:49:01;19.30;99.90
7360;DHT22;3720;48.274;7.796;2023-07-20T03:51:34;19.20;99.90
7360;DHT22;3720;48.274;7.796;2023-07-20T03:54:06;19.20;99.90
7360;DHT22;3720;48.274;7.796;2023-07-20T03:56:38;19.20;99.90
7360;DHT22;3720;48.274;7.796;2023-07-20T03:59:10;19.20;99.90
7360;DHT22;3720;48.274;7.796;2023-07-20T04:01:42;19.10;99.90
7360;DHT22;3720;48.274;7.796;2023-07-20T04:04:16;19.20;99.90
7360;DHT22;3720;48.274;7.796;2023-07-20T04:06:48;19.10;99.90
7360;DHT22;3720;48.274;7.796;2023-07-20T04:09:20;19.10;99.90
7360;DHT22;3720;48.274;7.796;2023-07-20T04:11:52;19.10;99.90
7360;DHT22;3720;48.274;7.796;2023-07-20T04:14:24;19.10;99.90
7360;DHT22;3720;48.274;7.796;2023-07-20T04:16:55;19.10;99.90
7360;DHT22;3720;48.274;7.796;2023-07-20T04:19:29;19.00;99.90
7360;DHT22;3720;48.274;7.796;2023-07-20T04:22:01;19.00;99.90
7360;DHT22;3720;48.274;7.796;2023-07-20T04:24:33;19.10;99.90
7360;DHT22;3720;48.274;7.796;2023-07-20T04:27:05;19.10;99.90
7360;DHT22;3720;48.274;7.796;2023-07-20T04:29:37;19.00;99.90
7360;DHT22;3720;48.274;7.796;2023-07-20T04:32:09;19.00;99.90
7360;DHT22;3720;48.274;7.796;2023-07-20T04:34:42;18.90;99.90
7360;DHT22;3720;48.274;7.796;2023-07-20T04:37:15;19.00;99.90
7360;DHT22;3720;48.274;7.796;2023-07-20T04:39:46;18.90;99.90
7360;DHT22;3720;48.274;7.796;2023-07-20T04:42:18;18.90;99.90
7360;DHT22;3720;48.274;7.796;2023-07-20T04:44:51;18.80;99.90
7360;DHT22;3720;48.274;7.796;2023-07-20T04:47:22;18.80;99.90
7360;DHT22;3720;48.274;7.796;2023-07-20T04:49:56;18.80;99.90
7360;DHT22;3720;48.274;7.796;2023-07-20T04:52:28;19.00;99.90
7360;DHT22;3720;48.274;7.796;2023-07-20T04:54:59;19.00;99.90
7360;DHT22;3720;48.274;7.796;2023-07-20T04:57:31;19.20;99.90
7360;DHT22;3720;48.274;7.796;2023-07-20T05:00:04;19.20;99.90
7360;DHT22;3720;48.274;7.796;2023-07-20T05:02:36;19.30;99.90
7360;DHT22;3720;48.274;7.796;2023-07-20T05:05:10;19.30;99.90
7360;DHT22;3720;48.274;7.796;2023-07-20T05:07:42;19.30;99.90
7360;DHT22;3720;48.274;7.796;2023-07-20T05:10:14;19.30;99.90
7360;DHT22;3720;48.274;7.796;2023-07-20T05:12:46;19.30;99.90
7360;DHT22;3720;48.274;7.796;2023-07-20T05:15:18;19.30;99.90
7360;DHT22;3720;48.274;7.796;2023-07-20T05:17:50;19.30;99.90
7360;DHT22;3720;48.274;7.796;2023-07-20T05:20:23;19.30;99.90
7360;DHT22;3720;48.274;7.796;2023-07-20T05:22:55;19.40;99.90
7360;DHT22;3720;48.274;7.796;2023-07-20T05:25:27;19.40;99.90
7360;DHT22;3720;48.274;7.796;2023-07-20T05:27:59;19.40;99.90
7360;DHT22;3720;48.274;7.796;2023-07-20T05:30:30;19.50;99.90
7360;DHT22;3720;48.274;7.796;2023-07-20T05:33:02;19.50;99.90
7360;DHT22;3720;48.274;7.796;2023-07-20T05:35:37;19.50;99.90
7360;DHT22;3720;48.274;7.796;2023-07-20T05:38:09;19.50;99.90
7360;DHT22;3720;48.274;7.796;2023-07-20T05:40:42;19.60;99.90
7360;DHT22;3720;48.274;7.796;2023-07-20T05:43:14;19.70;99.90
7360;DHT22;3720;48.274;7.796;2023-07-20T05:45:46;19.70;99.90
7360;DHT22;3720;48.274;7.796;2023-07-20T05:48:18;19.70;99.90
7360;DHT22;3720;48.274;7.796;2023-07-20T05:50:51;19.80;99.90
7360;DHT22;3720;48.274;7.796;2023-07-20T05:53:24;19.90;99.90
7360;DHT22;3720;48.274;7.796;2023-07-20T05:55:56;20.00;99.90
7360;DHT22;3720;48.274;7.796;2023-07-20T05:58:28;20.10;99.90
7360;DHT22;3720;48.274;7.796;2023-07-20T06:00:59;20.10;99.90
7360;DHT22;3720;48.274;7.796;2023-07-20T06:03:32;20.10;99.90
7360;DHT22;3720;48.274;7.796;2023-07-20T06:06:06;20.20;99.90
7360;DHT22;3720;48.274;7.796;2023-07-20T06:08:39;20.40;99.90
7360;DHT22;3720;48.274;7.796;2023-07-20T06:11:11;20.40;99.90
7360;DHT22;3720;48.274;7.796;2023-07-20T06:13:43;20.40;99.90
7360;DHT22;3720;48.274;7.796;2023-07-20T06:16:15;20.50;99.90
7360;DHT22;3720;48.274;7.796;2023-07-20T06:18:47;20.60;99.90
7360;DHT22;3720;48.274;7.796;2023-07-20T06:21:21;20.60;99.90
7360;DHT22;3720;48.274;7.796;2023-07-20T06:23:52;20.70;99.90
7360;DHT22;3720;48.274;7.796;2023-07-20T06:26:24;20.80;99.90
7360;DHT22;3720;48.274;7.796;2023-07-20T06:28:56;21.00;99.90
7360;DHT22;3720;48.274;7.796;2023-07-20T06:31:28;21.10;99.90
7360;DHT22;3720;48.274;7.796;2023-07-20T06:34:00;21.20;99.90
7360;DHT22;3720;48.274;7.796;2023-07-20T06:36:34;21.20;99.90
7360;DHT22;3720;48.274;7.796;2023-07-20T06:39:06;21.30;99.90
7360;DHT22;3720;48.274;7.796;2023-07-20T06:41:38;21.40;99.90
7360;DHT22;3720;48.274;7.796;2023-07-20T06:44:10;21.40;99.90
7360;DHT22;3720;48.274;7.796;2023-07-20T06:46:42;21.50;99.90
7360;DHT22;3720;48.274;7.796;2023-07-20T06:49:24;21.50;99.90
7360;DHT22;3720;48.274;7.796;2023-07-20T06:51:57;21.50;99.90
7360;DHT22;3720;48.274;7.796;2023-07-20T06:54:29;21.50;99.90
7360;DHT22;3720;48.274;7.796;2023-07-20T06:57:01;21.40;99.90
7360;DHT22;3720;48.274;7.796;2023-07-20T06:59:33;21.40;99.90
7360;DHT22;3720;48.274;7.796;2023-07-20T07:02:05;21.50;99.90
7360;DHT22;3720;48.274;7.796;2023-07-20T07:04:37;21.50;99.90
7360;DHT22;3720;48.274;7.796;2023-07-20T07:07:10;21.70;99.90
7360;DHT22;3720;48.274;7.796;2023-07-20T07:09:42;21.90;99.90
7360;DHT22;3720;48.274;7.796;2023-07-20T07:12:14;22.00;99.90
7360;DHT22;3720;48.274;7.796;2023-07-20T07:14:46;22.10;99.90
7360;DHT22;3720;48.274;7.796;2023-07-20T07:17:18;22.10;99.90
7360;DHT22;3720;48.274;7.796;2023-07-20T07:19:51;22.20;99.90
7360;DHT22;3720;48.274;7.796;2023-07-20T07:22:25;22.30;99.90
7360;DHT22;3720;48.274;7.796;2023-07-20T07:24:57;22.50;99.90
7360;DHT22;3720;48.274;7.796;2023-07-20T07:27:29;22.40;99.90
7360;DHT22;3720;48.274;7.796;2023-07-20T07:30:01;22.50;99.90
7360;DHT22;3720;48.274;7.796;2023-07-20T07:32:33;22.50;99.90
7360;DHT22;3720;48.274;7.796;2023-07-20T07:35:05;22.60;99.90
7360;DHT22;3720;48.274;7.796;2023-07-20T07:37:39;22.70;99.90
7360;DHT22;3720;48.274;7.796;2023-07-20T07:40:11;22.90;99.90
7360;DHT22;3720;48.274;7.796;2023-07-20T07:42:43;22.90;99.90
7360;DHT22;3720;48.274;7.796;2023-07-20T07:45:15;23.10;99.90
7360;DHT22;3720;48.274;7.796;2023-07-20T07:47:47;23.10;99.90
7360;DHT22;3720;48.274;7.796;2023-07-20T07:50:20;23.20;99.90
7360;DHT22;3720;48.274;7.796;2023-07-20T07:52:53;23.20;99.90
7360;DHT22;3720;48.274;7.796;2023-07-20T07:55:25;23.10;99.90
7360;DHT22;3720;48.274;7.796;2023-07-20T07:57:58;23.20;99.90
7360;DHT22;3720;48.274;7.796;2023-07-20T08:00:30;23.30;99.90
7360;DHT22;3720;48.274;7.796;2023-07-20T08:03:02;23.40;99.90
7360;DHT22;3720;48.274;7.796;2023-07-20T08:05:34;23.50;99.90
7360;DHT22;3720;48.274;7.796;2023-07-20T08:08:08;23.70;99.90
7360;DHT22;3720;48.274;7.796;2023-07-20T08:10:40;23.90;99.90
7360;DHT22;3720;48.274;7.796;2023-07-20T08:13:12;24.00;99.90
7360;DHT22;3720;48.274;7.796;2023-07-20T08:15:48;24.10;99.90
7360;DHT22;3720;48.274;7.796;2023-07-20T08:18:20;24.10;99.90
7360;DHT22;3720;48.274;7.796;2023-07-20T08:20:52;24.00;99.90
7360;DHT22;3720;48.274;7.796;2023-07-20T08:23:26;23.80;99.90
7360;DHT22;3720;48.274;7.796;2023-07-20T08:25:58;23.60;99.90
7360;DHT22;3720;48.274;7.796;2023-07-20T08:28:31;23.60;99.90
7360;DHT22;3720;48.274;7.796;2023-07-20T08:31:05;23.70;99.90
7360;DHT22;3720;48.274;7.796;2023-07-20T08:33:38;23.80;99.90
7360;DHT22;3720;48.274;7.796;2023-07-20T08:36:10;24.00;99.90
7360;DHT22;3720;48.274;7.796;2023-07-20T08:38:43;24.20;99.90
7360;DHT22;3720;48.274;7.796;2023-07-20T08:41:15;24.20;99.90
7360;DHT22;3720;48.274;7.796;2023-07-20T08:43:48;24.20;99.90
7360;DHT22;3720;48.274;7.796;2023-07-20T08:46:22;24.30;99.90
7360;DHT22;3720;48.274;7.796;2023-07-20T08:48:55;24.40;99.90
7360;DHT22;3720;48.274;7.796;2023-07-20T08:51:29;24.60;99.90
7360;DHT22;3720;48.274;7.796;2023-07-20T08:54:03;24.60;99.90
7360;DHT22;3720;48.274;7.796;2023-07-20T08:56:35;24.70;99.90
7360;DHT22;3720;48.274;7.796;2023-07-20T08:59:08;24.80;99.90
7360;DHT22;3720;48.274;7.796;2023-07-20T09:01:40;25.00;99.90
7360;DHT22;3720;48.274;7.796;2023-07-20T09:04:13;25.20;99.90
7360;DHT22;3720;48.274;7.796;2023-07-20T09:06:47;25.10;99.90
7360;DHT22;3720;48.274;7.796;2023-07-20T09:09:22;25.00;99.90
7360;DHT22;3720;48.274;7.796;2023-07-20T09:11:54;25.00;99.90
7360;DHT22;3720;48.274;7.796;2023-07-20T09:14:25;24.90;99.90
7360;DHT22;3720;48.274;7.796;2023-07-20T09:16:57;25.10;99.90
7360;DHT22;3720;48.274;7.796;2023-07-20T09:19:29;25.20;99.90
7360;DHT22;3720;48.274;7.796;2023-07-20T09:22:01;25.30;99.90
7360;DHT22;3720;48.274;7.796;2023-07-20T09:24:35;25.30;99.90
7360;DHT22;3720;48.274;7.796;2023-07-20T09:27:06;25.30;99.90
7360;DHT22;3720;48.274;7.796;2023-07-20T09:29:47;25.20;99.90
7360;DHT22;3720;48.274;7.796;2023-07-20T09:32:21;25.20;99.90
7360;DHT22;3720;48.274;7.796;2023-07-20T09:34:53;25.30;99.90
7360;DHT22;3720;48.274;7.796;2023-07-20T09:37:25;25.40;99.90
7360;DHT22;3720;48.274;7.796;2023-07-20T09:39:59;25.50;99.90
7360;DHT22;3720;48.274;7.796;2023-07-20T09:42:31;25.50;99.90
7360;DHT22;3720;48.274;7.796;2023-07-20T09:45:06;25.70;99.90
7360;DHT22;3720;48.274;7.796;2023-07-20T09:47:39;25.90;99.90
7360;DHT22;3720;48.274;7.796;2023-07-20T09:50:11;26.00;99.90
7360;DHT22;3720;48.274;7.796;2023-07-20T09:52:43;26.20;99.90
7360;DHT22;3720;48.274;7.796;2023-07-20T09:55:17;26.50;99.90
7360;DHT22;3720;48.274;7.796;2023-07-20T09:57:49;26.80;99.90
7360;DHT22;3720;48.274;7.796;2023-07-20T10:00:23;27.10;99.90
7360;DHT22;3720;48.274;7.796;2023-07-20T10:02:56;27.20;99.90
7360;DHT22;3720;48.274;7.796;2023-07-20T10:05:32;27.40;99.90
7360;DHT22;3720;48.274;7.796;2023-07-20T10:08:10;27.60;99.90
7360;DHT22;3720;48.274;7.796;2023-07-20T10:10:44;27.70;99.90
7360;DHT22;3720;48.274;7.796;2023-07-20T10:13:18;27.80;99.90
7360;DHT22;3720;48.274;7.796;2023-07-20T10:15:54;27.70;99.70
7360;DHT22;3720;48.274;7.796;2023-07-20T10:18:31;27.60;99.50
7360;DHT22;3720;48.274;7.796;2023-07-20T10:21:06;27.70;99.90
7360;DHT22;3720;48.274;7.796;2023-07-20T10:23:39;27.90;99.90
7360;DHT22;3720;48.274;7.796;2023-07-20T10:26:13;28.40;99.90
7360;DHT22;3720;48.274;7.796;2023-07-20T10:28:45;28.70;99.90
7360;DHT22;3720;48.274;7.796;2023-07-20T10:31:17;28.80;96.60
7360;DHT22;3720;48.274;7.796;2023-07-20T10:33:49;28.70;95.10
7360;DHT22;3720;48.274;7.796;2023-07-20T10:36:25;28.40;94.90
7360;DHT22;3720;48.274;7.796;2023-07-20T10:38:58;28.20;95.90
7360;DHT22;3720;48.274;7.796;2023-07-20T10:41:37;27.90;95.90
7360;DHT22;3720;48.274;7.796;2023-07-20T10:44:11;27.70;96.20
7360;DHT22;3720;48.274;7.796;2023-07-20T10:46:44;27.60;95.80
7360;DHT22;3720;48.274;7.796;2023-07-20T10:49:16;27.50;97.20
7360;DHT22;3720;48.274;7.796;2023-07-20T10:51:56;27.40;97.30
7360;DHT22;3720;48.274;7.796;2023-07-20T10:54:47;27.50;95.60
7360;DHT22;3720;48.274;7.796;2023-07-20T10:57:31;27.70;97.60
7360;DHT22;3720;48.274;7.796;2023-07-20T11:00:09;27.70;98.10
7360;DHT22;3720;48.274;7.796;2023-07-20T11:02:44;27.50;99.80
7360;DHT22;3720;48.274;7.796;2023-07-20T11:05:36;27.50;99.90
7360;DHT22;3720;48.274;7.796;2023-07-20T11:08:12;27.70;99.90
7360;DHT22;3720;48.274;7.796;2023-07-20T11:10:44;28.20;99.90
7360;DHT22;3720;48.274;7.796;2023-07-20T11:13:21;28.70;98.90
7360;DHT22;3720;48.274;7.796;2023-07-20T11:16:04;29.10;94.50
7360;DHT22;3720;48.274;7.796;2023-07-20T11:18:37;29.30;95.90
7360;DHT22;3720;48.274;7.796;2023-07-20T11:21:11;29.50;95.80
7360;DHT22;3720;48.274;7.796;2023-07-20T11:23:43;29.80;92.30
7360;DHT22;3720;48.274;7.796;2023-07-20T11:26:17;29.90;93.50
7360;DHT22;3720;48.274;7.796;2023-07-20T11:28:51;29.90;92.10
7360;DHT22;3720;48.274;7.796;2023-07-20T11:31:23;30.20;91.00
7360;DHT22;3720;48.274;7.796;2023-07-20T11:33:55;30.50;90.70
7360;DHT22;3720;48.274;7.796;2023-07-20T11:36:27;30.70;92.00
7360;DHT22;3720;48.274;7.796;2023-07-20T11:39:00;31.00;89.50
7360;DHT22;3720;48.274;7.796;2023-07-20T11:41:32;31.10;84.40
7360;DHT22;3720;48.274;7.796;2023-07-20T11:44:05;30.90;81.10
7360;DHT22;3720;48.274;7.796;2023-07-20T11:46:38;30.40;75.20
7360;DHT22;3720;48.274;7.796;2023-07-20T11:49:11;30.10;75.80
7360;DHT22;3720;48.274;7.796;2023-07-20T11:51:44;30.20;77.90
7360;DHT22;3720;48.274;7.796;2023-07-20T11:54:16;30.50;76.40
7360;DHT22;3720;48.274;7.796;2023-07-20T11:56:48;30.90;79.00
7360;DHT22;3720;48.274;7.796;2023-07-20T11:59:26;31.20;76.80
7360;DHT22;3720;48.274;7.796;2023-07-20T12:01:58;31.30;76.10
7360;DHT22;3720;48.274;7.796;2023-07-20T12:04:33;31.40;71.90
7360;DHT22;3720;48.274;7.796;2023-07-20T12:07:07;31.20;72.60
7360;DHT22;3720;48.274;7.796;2023-07-20T12:09:39;31.40;74.40
7360;DHT22;3720;48.274;7.796;2023-07-20T12:12:11;31.70;69.10
7360;DHT22;3720;48.274;7.796;2023-07-20T12:14:45;32.10;69.10
7360;DHT22;3720;48.274;7.796;2023-07-20T12:17:16;32.10;66.50
7360;DHT22;3720;48.274;7.796;2023-07-20T12:19:48;32.00;67.70
7360;DHT22;3720;48.274;7.796;2023-07-20T12:22:20;32.10;68.40
7360;DHT22;3720;48.274;7.796;2023-07-20T12:24:52;32.30;66.60
7360;DHT22;3720;48.274;7.796;2023-07-20T12:27:27;32.40;61.90
7360;DHT22;3720;48.274;7.796;2023-07-20T12:30:01;32.30;64.30
7360;DHT22;3720;48.274;7.796;2023-07-20T12:32:34;32.50;65.60
7360;DHT22;3720;48.274;7.796;2023-07-20T12:35:07;32.60;62.60
7360;DHT22;3720;48.274;7.796;2023-07-20T12:37:39;32.70;62.60
7360;DHT22;3720;48.274;7.796;2023-07-20T12:40:11;32.70;58.70
7360;DHT22;3720;48.274;7.796;2023-07-20T12:42:43;32.60;59.30
7360;DHT22;3720;48.274;7.796;2023-07-20T12:45:17;32.50;59.80
7360;DHT22;3720;48.274;7.796;2023-07-20T12:47:49;32.50;58.20
7360;DHT22;3720;48.274;7.796;2023-07-20T12:50:21;32.70;60.00
7360;DHT22;3720;48.274;7.796;2023-07-20T12:52:53;33.00;60.00
7360;DHT22;3720;48.274;7.796;2023-07-20T12:55:25;33.20;56.90
7360;DHT22;3720;48.274;7.796;2023-07-20T12:57:57;33.30;56.90
7360;DHT22;3720;48.274;7.796;2023-07-20T13:00:31;33.30;56.30
7360;DHT22;3720;48.274;7.796;2023-07-20T13:03:03;33.50;55.30
7360;DHT22;3720;48.274;7.796;2023-07-20T13:05:37;33.60;56.60
7360;DHT22;3720;48.274;7.796;2023-07-20T13:08:09;33.70;55.50
7360;DHT22;3720;48.274;7.796;2023-07-20T13:10:43;33.50;56.00
7360;DHT22;3720;48.274;7.796;2023-07-20T13:13:15;33.50;56.40
7360;DHT22;3720;48.274;7.796;2023-07-20T13:15:48;33.40;55.60
7360;DHT22;3720;48.274;7.796;2023-07-20T13:18:20;33.50;55.50
7360;DHT22;3720;48.274;7.796;2023-07-20T13:20:52;33.80;54.10
7360;DHT22;3720;48.274;7.796;2023-07-20T13:23:24;34.10;53.10
7360;DHT22;3720;48.274;7.796;2023-07-20T13:25:56;34.00;52.20
7360;DHT22;3720;48.274;7.796;2023-07-20T13:28:28;33.70;52.10
7360;DHT22;3720;48.274;7.796;2023-07-20T13:31:01;33.60;52.20
7360;DHT22;3720;48.274;7.796;2023-07-20T13:33:33;33.80;53.20
7360;DHT22;3720;48.274;7.796;2023-07-20T13:36:06;33.70;52.20
7360;DHT22;3720;48.274;7.796;2023-07-20T13:38:37;33.40;51.50
7360;DHT22;3720;48.274;7.796;2023-07-20T13:41:09;33.30;51.50
7360;DHT22;3720;48.274;7.796;2023-07-20T13:43:41;33.20;51.60
7360;DHT22;3720;48.274;7.796;2023-07-20T13:46:15;33.20;51.30
7360;DHT22;3720;48.274;7.796;2023-07-20T13:48:47;33.40;52.20
7360;DHT22;3720;48.274;7.796;2023-07-20T13:51:18;33.50;53.90
7360;DHT22;3720;48.274;7.796;2023-07-20T13:53:50;33.60;53.50
7360;DHT22;3720;48.274;7.796;2023-07-20T13:56:23;33.80;53.30
7360;DHT22;3720;48.274;7.796;2023-07-20T17:11:43;30.60;52.20
7360;DHT22;3720;48.274;7.796;2023-07-20T17:14:15;30.60;53.40
7360;DHT22;3720;48.274;7.796;2023-07-20T17:16:48;30.50;54.10
7360;DHT22;3720;48.274;7.796;2023-07-20T17:19:20;30.40;54.10
7360;DHT22;3720;48.274;7.796;2023-07-20T17:21:52;30.50;53.00
7360;DHT22;3720;48.274;7.796;2023-07-20T17:24:24;30.60;53.10
7360;DHT22;3720;48.274;7.796;2023-07-20T17:26:57;30.60;52.70
7360;DHT22;3720;48.274;7.796;2023-07-20T17:29:29;30.60;52.40
7360;DHT22;3720;48.274;7.796;2023-07-20T17:32:01;30.50;52.60
7360;DHT22;3720;48.274;7.796;2023-07-20T17:34:33;30.40;53.40
7360;DHT22;3720;48.274;7.796;2023-07-20T17:37:05;30.40;53.20
7360;DHT22;3720;48.274;7.796;2023-07-20T17:39:38;30.30;53.70
7360;DHT22;3720;48.274;7.796;2023-07-20T17:42:12;30.30;53.00
7360;DHT22;3720;48.274;7.796;2023-07-20T17:44:44;30.10;54.30
7360;DHT22;3720;48.274;7.796;2023-07-20T17:47:16;29.90;54.20
7360;DHT22;3720;48.274;7.796;2023-07-20T17:49:48;29.80;54.00
7360;DHT22;3720;48.274;7.796;2023-07-20T17:52:21;29.60;54.30
7360;DHT22;3720;48.274;7.796;2023-07-20T17:54:53;29.60;54.30
7360;DHT22;3720;48.274;7.796;2023-07-20T17:57:26;29.50;54.70
7360;DHT22;3720;48.274;7.796;2023-07-20T17:59:59;29.30;54.70
7360;DHT22;3720;48.274;7.796;2023-07-20T18:02:31;29.10;55.80
7360;DHT22;3720;48.274;7.796;2023-07-20T18:05:04;29.00;55.70
7360;DHT22;3720;48.274;7.796;2023-07-20T18:07:36;28.90;56.60
7360;DHT22;3720;48.274;7.796;2023-07-20T18:10:11;28.80;56.50
7360;DHT22;3720;48.274;7.796;2023-07-20T18:12:44;28.70;57.90
7360;DHT22;3720;48.274;7.796;2023-07-20T18:15:17;28.50;58.00
7360;DHT22;3720;48.274;7.796;2023-07-20T18:17:49;28.40;58.00
7360;DHT22;3720;48.274;7.796;2023-07-20T18:20:21;28.30;58.80
7360;DHT22;3720;48.274;7.796;2023-07-20T18:22:53;28.20;58.60
7360;DHT22;3720;48.274;7.796;2023-07-20T18:25:25;28.10;58.30
7360;DHT22;3720;48.274;7.796;2023-07-20T18:27:58;28.00;60.10
7360;DHT22;3720;48.274;7.796;2023-07-20T18:30:30;28.00;59.90
7360;DHT22;3720;48.274;7.796;2023-07-20T18:33:05;27.90;60.20
7360;DHT22;3720;48.274;7.796;2023-07-20T18:35:37;27.70;60.80
7360;DHT22;3720;48.274;7.796;2023-07-20T18:38:10;27.60;60.60
7360;DHT22;3720;48.274;7.796;2023-07-20T18:40:43;27.60;61.70
7360;DHT22;3720;48.274;7.796;2023-07-20T18:43:16;27.50;61.40
7360;DHT22;3720;48.274;7.796;2023-07-20T18:45:52;27.50;60.90
7360;DHT22;3720;48.274;7.796;2023-07-20T18:48:24;27.40;61.30
7360;DHT22;3720;48.274;7.796;2023-07-20T18:50:56;27.20;62.40
7360;DHT22;3720;48.274;7.796;2023-07-20T18:53:29;27.10;62.80
7360;DHT22;3720;48.274;7.796;2023-07-20T18:56:01;26.90;63.60
7360;DHT22;3720;48.274;7.796;2023-07-20T18:58:34;26.90;64.30
7360;DHT22;3720;48.274;7.796;2023-07-20T19:01:06;26.80;65.00
7360;DHT22;3720;48.274;7.796;2023-07-20T19:03:38;26.70;64.70
7360;DHT22;3720;48.274;7.796;2023-07-20T19:06:10;26.60;64.80
7360;DHT22;3720;48.274;7.796;2023-07-20T19:08:42;26.50;65.40
7360;DHT22;3720;48.274;7.796;2023-07-20T19:11:14;26.50;65.40
7360;DHT22;3720;48.274;7.796;2023-07-20T19:13:47;26.40;65.70
7360;DHT22;3720;48.274;7.796;2023-07-20T19:16:20;26.30;66.10
7360;DHT22;3720;48.274;7.796;2023-07-20T19:18:52;26.20;65.60
7360;DHT22;3720;48.274;7.796;2023-07-20T19:21:24;26.10;65.80
7360;DHT22;3720;48.274;7.796;2023-07-20T19:23:56;26.10;67.00
7360;DHT22;3720;48.274;7.796;2023-07-20T19:26:28;25.90;67.10
7360;DHT22;3720;48.274;7.796;2023-07-20T19:29:02;25.80;68.20
7360;DHT22;3720;48.274;7.796;2023-07-20T19:31:34;25.70;68.90
7360;DHT22;3720;48.274;7.796;2023-07-20T19:34:06;25.70;68.30
7360;DHT22;3720;48.274;7.796;2023-07-20T19:36:38;25.70;68.80
7360;DHT22;3720;48.274;7.796;2023-07-20T19:39:11;25.60;69.40
7360;DHT22;3720;48.274;7.796;2023-07-20T19:41:43;25.50;69.20
7360;DHT22;3720;48.274;7.796;2023-07-20T19:44:17;25.40;70.40
7360;DHT22;3720;48.274;7.796;2023-07-20T19:46:49;25.30;70.30
7360;DHT22;3720;48.274;7.796;2023-07-20T19:49:21;25.30;70.40
7360;DHT22;3720;48.274;7.796;2023-07-20T19:51:53;25.20;71.10